sensor_id;sensor_type;location;lat;lon;timestamp;temperature;humidity
23591;DHT22;11973;52.098;7.582;2023-04-15T03:47:22;5.40;78.70
23591;DHT22;11973;52.098;7.582;2023-04-15T03:49:47;5.30;78.70
23591;DHT22;11973;52.098;7.582;2023-04-15T03:52:13;5.30;78.90
23591;DHT22;11973;52.098;7.582;2023-04-15T03:54:39;5.30;79.10
23591;DHT22;11973;52.098;7.582;2023-04-15T03:57:04;5.50;79.30
23591;DHT22;11973;52.098;7.582;2023-04-15T03:59:30;5.30;79.30
23591;DHT22;11973;52.098;7.582;2023-04-15T04:01:56;5.30;79.30
23591;DHT22;11973;52.098;7.582;2023-04-15T04:04:22;5.20;80.20
23591;DHT22;11973;52.098;7.582;2023-04-15T04:06:48;5.20;79.50
23591;DHT22;11973;52.098;7.582;2023-04-15T04:09:14;5.20;79.60
23591;DHT22;11973;52.098;7.582;2023-04-15T04:11:39;5.30;79.80
23591;DHT22;11973;52.098;7.582;2023-04-15T04:14:05;5.10;79.70
23591;DHT22;11973;52.098;7.582;2023-04-15T04:16:31;5.10;80.00
23591;DHT22;11973;52.098;7.582;2023-04-15T04:18:57;5.10;80.10
23591;DHT22;11973;52.098;7.582;2023-04-15T04:21:22;5.10;80.20
23591;DHT22;11973;52.098;7.582;2023-04-15T04:23:48;5.10;80.40
23591;DHT22;11973;52.098;7.582;2023-04-15T04:26:14;5.10;80.50
23591;DHT22;11973;52.098;7.582;2023-04-15T04:28:39;5.20;80.60
23591;DHT22;11973;52.098;7.582;2023-04-15T04:31:06;5.00;80.60
23591;DHT22;11973;52.098;7.582;2023-04-15T04:33:32;5.20;80.90
23591;DHT22;11973;52.098;7.582;2023-04-15T04:35:58;5.00;80.80
23591;DHT22;11973;52.098;7.582;2023-04-15T04:38:24;5.10;81.10
23591;DHT22;11973;52.098;7.582;2023-04-15T04:40:49;5.00;81.10
23591;DHT22;11973;52.098;7.582;2023-04-15T04:43:15;5.00;81.10
23591;DHT22;11973;52.098;7.582;2023-04-15T04:45:41;5.00;81.20
23591;DHT22;11973;52.098;7.582;2023-04-15T04:48:07;5.00;81.30
23591;DHT22;11973;52.098;7.582;2023-04-15T04:50:34;5.00;81.50
23591;DHT22;11973;52.098;7.582;2023-04-15T04:53:01;5.00;81.50
23591;DHT22;11973;52.098;7.582;2023-04-15T04:55:27;5.00;81.50
23591;DHT22;11973;52.098;7.582;2023-04-15T04:57:53;5.00;81.60
23591;DHT22;11973;52.098;7.582;2023-04-15T05:00:19;5.00;81.80
23591;DHT22;11973;52.098;7.582;2023-04-15T05:02:45;5.00;81.90
23591;DHT22;11973;52.098;7.582;2023-04-15T05:05:11;5.00;82.00
23591;DHT22;11973;52.098;7.582;2023-04-15T05:07:37;5.10;82.20
23591;DHT22;11973;52.098;7.582;2023-04-15T05:10:04;5.10;82.40
23591;DHT22;11973;52.098;7.582;2023-04-15T05:12:31;5.10;82.40
23591;DHT22;11973;52.098;7.582;2023-04-15T05:14:57;5.10;82.50
23591;DHT22;11973;52.098;7.582;2023-04-15T05:17:22;5.20;82.80
23591;DHT22;11973;52.098;7.582;2023-04-15T05:19:48;5.20;82.90
23591;DHT22;11973;52.098;7.582;2023-04-15T05:22:14;5.40;83.20
23591;DHT22;11973;52.098;7.582;2023-04-15T05:24:40;5.50;83.40
23591;DHT22;11973;52.098;7.582;2023-04-15T05:27:06;5.40;83.40
23591;DHT22;11973;52.098;7.582;2023-04-15T05:29:33;5.40;84.20
23591;DHT22;11973;52.098;7.582;2023-04-15T05:31:59;5.50;83.70
23591;DHT22;11973;52.098;7.582;2023-04-15T05:34:25;5.50;83.80
23591;DHT22;11973;52.098;7.582;2023-04-15T05:36:51;5.60;83.90
23591;DHT22;11973;52.098;7.582;2023-04-15T05:39:17;5.70;84.10
23591;DHT22;11973;52.098;7.582;2023-04-15T05:41:43;5.70;84.20
23591;DHT22;11973;52.098;7.582;2023-04-15T05:44:09;5.80;85.10
23591;DHT22;11973;52.098;7.582;2023-04-15T05:46:34;5.90;84.40
23591;DHT22;11973;52.098;7.582;2023-04-15T05:49:00;5.90;84.50
23591;DHT22;11973;52.098;7.582;2023-04-15T05:51:26;6.00;84.60
23591;DHT22;11973;52.098;7.582;2023-04-15T05:53:52;6.20;84.80
23591;DHT22;11973;52.098;7.582;2023-04-15T05:56:18;6.20;84.90
23591;DHT22;11973;52.098;7.582;2023-04-15T05:58:45;6.20;85.70
23591;DHT22;11973;52.098;7.582;2023-04-15T06:01:10;6.30;85.00
23591;DHT22;11973;52.098;7.582;2023-04-15T06:03:37;6.60;85.30
23591;DHT22;11973;52.098;7.582;2023-04-15T06:06:03;6.40;85.10
23591;DHT22;11973;52.098;7.582;2023-04-15T06:08:29;6.60;85.40
23591;DHT22;11973;52.098;7.582;2023-04-15T06:10:55;6.80;85.70
23591;DHT22;11973;52.098;7.582;2023-04-15T06:13:20;6.90;85.70
23591;DHT22;11973;52.098;7.582;2023-04-15T06:15:46;6.70;85.50
23591;DHT22;11973;52.098;7.582;2023-04-15T06:18:12;6.80;85.70
23591;DHT22;11973;52.098;7.582;2023-04-15T06:20:37;6.80;85.70
23591;DHT22;11973;52.098;7.582;2023-04-15T06:23:03;6.90;85.80
23591;DHT22;11973;52.098;7.582;2023-04-15T06:25:29;7.10;86.10
23591;DHT22;11973;52.098;7.582;2023-04-15T06:27:55;7.00;86.00
23591;DHT22;11973;52.098;7.582;2023-04-15T06:30:20;7.20;86.30
23591;DHT22;11973;52.098;7.582;2023-04-15T06:32:46;7.10;86.20
23591;DHT22;11973;52.098;7.582;2023-04-15T06:35:12;7.40;86.50
23591;DHT22;11973;52.098;7.582;2023-04-15T06:37:37;7.20;86.30
23591;DHT22;11973;52.098;7.582;2023-04-15T06:40:03;7.50;86.70
23591;DHT22;11973;52.098;7.582;2023-04-15T06:42:29;7.30;86.40
23591;DHT22;11973;52.098;7.582;2023-04-15T06:44:55;7.40;86.50
23591;DHT22;11973;52.098;7.582;2023-04-15T06:47:21;7.50;86.60
23591;DHT22;11973;52.098;7.582;2023-04-15T06:49:47;7.60;86.70
23591;DHT22;11973;52.098;7.582;2023-04-15T06:52:12;7.60;86.70
23591;DHT22;11973;52.098;7.582;2023-04-15T06:54:38;7.60;86.80
23591;DHT22;11973;52.098;7.582;2023-04-15T06:57:05;7.60;86.70
23591;DHT22;11973;52.098;7.582;2023-04-15T06:59:31;7.70;86.90
23591;DHT22;11973;52.098;7.582;2023-04-15T07:01:57;7.70;86.90
23591;DHT22;11973;52.098;7.582;2023-04-15T07:04:23;7.70;86.90
23591;DHT22;11973;52.098;7.582;2023-04-15T07:06:48;7.90;87.20
23591;DHT22;11973;52.098;7.582;2023-04-15T07:09:14;7.90;87.30
23591;DHT22;11973;52.098;7.582;2023-04-15T07:11:40;7.90;87.30
23591;DHT22;11973;52.098;7.582;2023-04-15T07:14:06;8.00;87.40
23591;DHT22;11973;52.098;7.582;2023-04-15T07:16:31;8.00;87.40
23591;DHT22;11973;52.098;7.582;2023-04-15T07:18:57;8.20;87.60
23591;DHT22;11973;52.098;7.582;2023-04-15T07:21:29;8.40;87.70
23591;DHT22;11973;52.098;7.582;2023-04-15T07:23:55;8.30;87.70
23591;DHT22;11973;52.098;7.582;2023-04-15T07:26:21;8.40;87.80
23591;DHT22;11973;52.098;7.582;2023-04-15T07:28:48;8.50;87.90
23591;DHT22;11973;52.098;7.582;2023-04-15T07:31:14;8.60;88.00
23591;DHT22;11973;52.098;7.582;2023-04-15T07:33:40;8.70;88.00
23591;DHT22;11973;52.098;7.582;2023-04-15T07:36:06;9.00;88.30
23591;DHT22;11973;52.098;7.582;2023-04-15T07:38:32;9.00;88.20
23591;DHT22;11973;52.098;7.582;2023-04-15T07:40:58;9.00;88.10
23591;DHT22;11973;52.098;7.582;2023-04-15T07:43:24;9.10;88.10
23591;DHT22;11973;52.098;7.582;2023-04-15T07:45:49;9.10;88.00
23591;DHT22;11973;52.098;7.582;2023-04-15T07:48:15;9.10;87.90
23591;DHT22;11973;52.098;7.582;2023-04-15T07:50:41;9.20;88.00
23591;DHT22;11973;52.098;7.582;2023-04-15T07:53:07;9.20;88.10
23591;DHT22;11973;52.098;7.582;2023-04-15T07:55:33;9.40;88.40
23591;DHT22;11973;52.098;7.582;2023-04-15T07:57:59;9.40;88.40
23591;DHT22;11973;52.098;7.582;2023-04-15T08:00:24;9.50;88.50
23591;DHT22;11973;52.098;7.582;2023-04-15T08:02:51;9.40;88.40
23591;DHT22;11973;52.098;7.582;2023-04-15T08:05:18;9.50;88.40
23591;DHT22;11973;52.098;7.582;2023-04-15T08:07:44;9.50;88.40
23591;DHT22;11973;52.098;7.582;2023-04-15T08:10:10;9.60;88.60
23591;DHT22;11973;52.098;7.582;2023-04-15T08:12:36;9.80;88.80
23591;DHT22;11973;52.098;7.582;2023-04-15T08:15:03;9.70;88.60
23591;DHT22;11973;52.098;7.582;2023-04-15T08:17:29;9.80;88.70
23591;DHT22;11973;52.098;7.582;2023-04-15T08:19:54;10.00;87.70
23591;DHT22;11973;52.098;7.582;2023-04-15T08:22:20;10.00;87.70
23591;DHT22;11973;52.098;7.582;2023-04-15T08:24:46;10.00;88.30
23591;DHT22;11973;52.098;7.582;2023-04-15T08:27:12;10.10;87.70
23591;DHT22;11973;52.098;7.582;2023-04-15T08:29:38;10.20;87.70
23591;DHT22;11973;52.098;7.582;2023-04-15T08:32:05;10.20;88.20
23591;DHT22;11973;52.098;7.582;2023-04-15T08:34:30;10.20;87.60
23591;DHT22;11973;52.098;7.582;2023-04-15T08:36:56;10.20;88.30
23591;DHT22;11973;52.098;7.582;2023-04-15T08:39:22;10.10;87.40
23591;DHT22;11973;52.098;7.582;2023-04-15T08:41:54;10.00;87.40
23591;DHT22;11973;52.098;7.582;2023-04-15T08:44:23;10.00;88.20
23591;DHT22;11973;52.098;7.582;2023-04-15T08:46:51;9.90;88.60
23591;DHT22;11973;52.098;7.582;2023-04-15T08:49:18;9.90;88.70
23591;DHT22;11973;52.098;7.582;2023-04-15T08:51:46;10.00;88.50
23591;DHT22;11973;52.098;7.582;2023-04-15T08:54:12;9.80;88.80
23591;DHT22;11973;52.098;7.582;2023-04-15T08:56:38;9.80;88.90
23591;DHT22;11973;52.098;7.582;2023-04-15T08:59:04;9.80;89.00
23591;DHT22;11973;52.098;7.582;2023-04-15T09:01:34;9.80;89.70
23591;DHT22;11973;52.098;7.582;2023-04-15T09:04:02;9.90;89.20
23591;DHT22;11973;52.098;7.582;2023-04-15T09:06:28;9.90;89.30
23591;DHT22;11973;52.098;7.582;2023-04-15T09:08:53;9.90;89.30
23591;DHT22;11973;52.098;7.582;2023-04-15T09:11:21;9.90;89.30
23591;DHT22;11973;52.098;7.582;2023-04-15T09:13:47;9.90;89.30
23591;DHT22;11973;52.098;7.582;2023-04-15T09:16:13;9.90;89.30
23591;DHT22;11973;52.098;7.582;2023-04-15T09:18:39;9.90;89.30
23591;DHT22;11973;52.098;7.582;2023-04-15T09:23:31;9.90;89.30
23591;DHT22;11973;52.098;7.582;2023-04-15T09:25:57;10.00;88.40
23591;DHT22;11973;52.098;7.582;2023-04-15T09:28:24;10.00;88.40
23591;DHT22;11973;52.098;7.582;2023-04-15T09:31:01;9.90;89.40
23591;DHT22;11973;52.098;7.582;2023-04-15T09:33:28;10.00;88.40
23591;DHT22;11973;52.098;7.582;2023-04-15T09:35:58;10.00;88.40
23591;DHT22;11973;52.098;7.582;2023-04-15T09:38:24;10.10;88.70
23591;DHT22;11973;52.098;7.582;2023-04-15T09:40:50;10.10;88.60
23591;DHT22;11973;52.098;7.582;2023-04-15T09:43:16;10.20;88.80
23591;DHT22;11973;52.098;7.582;2023-04-15T09:45:51;10.40;89.00
23591;DHT22;11973;52.098;7.582;2023-04-15T09:48:22;10.30;88.80
23591;DHT22;11973;52.098;7.582;2023-04-15T09:50:49;10.30;88.70
23591;DHT22;11973;52.098;7.582;2023-04-15T09:53:20;10.30;88.70
23591;DHT22;11973;52.098;7.582;2023-04-15T09:55:49;10.30;88.70
23591;DHT22;11973;52.098;7.582;2023-04-15T09:58:26;10.50;88.80
23591;DHT22;11973;52.098;7.582;2023-04-15T10:00:53;10.40;88.80
23591;DHT22;11973;52.098;7.582;2023-04-15T10:03:24;10.30;88.70
23591;DHT22;11973;52.098;7.582;2023-04-15T10:05:55;10.30;88.70
23591;DHT22;11973;52.098;7.582;2023-04-15T10:08:29;10.30;88.80
23591;DHT22;11973;52.098;7.582;2023-04-15T10:10:56;10.30;88.90
23591;DHT22;11973;52.098;7.582;2023-04-15T10:13:26;10.40;89.10
23591;DHT22;11973;52.098;7.582;2023-04-15T10:16:06;10.40;89.20
23591;DHT22;11973;52.098;7.582;2023-04-15T10:18:34;10.60;89.40
23591;DHT22;11973;52.098;7.582;2023-04-15T10:21:01;10.50;89.30
23591;DHT22;11973;52.098;7.582;2023-04-15T10:23:27;10.60;89.40
23591;DHT22;11973;52.098;7.582;2023-04-15T10:25:53;10.60;89.40
23591;DHT22;11973;52.098;7.582;2023-04-15T10:28:20;10.70;89.40
23591;DHT22;11973;52.098;7.582;2023-04-15T10:30:47;10.80;89.40
23591;DHT22;11973;52.098;7.582;2023-04-15T10:33:16;10.70;89.30
23591;DHT22;11973;52.098;7.582;2023-04-15T10:35:43;10.70;89.40
23591;DHT22;11973;52.098;7.582;2023-04-15T10:44:08;10.80;89.60
23591;DHT22;11973;52.098;7.582;2023-04-15T10:49:23;10.90;89.70
23591;DHT22;11973;52.098;7.582;2023-04-15T10:51:57;11.00;90.00
23591;DHT22;11973;52.098;7.582;2023-04-15T11:02:44;11.30;90.00
23591;DHT22;11973;52.098;7.582;2023-04-15T11:05:11;11.40;90.00
23591;DHT22;11973;52.098;7.582;2023-04-15T11:12:46;11.40;89.70
23591;DHT22;11973;52.098;7.582;2023-04-15T11:15:37;11.40;89.60
23591;DHT22;11973;52.098;7.582;2023-04-15T11:18:08;11.40;89.50
23591;DHT22;11973;52.098;7.582;2023-04-15T11:20:35;11.40;89.60
23591;DHT22;11973;52.098;7.582;2023-04-15T11:23:01;11.40;89.70
23591;DHT22;11973;52.098;7.582;2023-04-15T11:25:36;11.40;90.00
23591;DHT22;11973;52.098;7.582;2023-04-15T11:28:03;11.40;90.00
23591;DHT22;11973;52.098;7.582;2023-04-15T11:30:33;11.50;90.00
23591;DHT22;11973;52.098;7.582;2023-04-15T11:33:07;11.40;90.00
23591;DHT22;11973;52.098;7.582;2023-04-15T11:35:34;11.40;90.00
23591;DHT22;11973;52.098;7.582;2023-04-15T11:38:18;11.40;90.10
23591;DHT22;11973;52.098;7.582;2023-04-15T11:40:44;11.30;90.10
23591;DHT22;11973;52.098;7.582;2023-04-15T11:43:18;11.30;90.10
23591;DHT22;11973;52.098;7.582;2023-04-15T11:45:58;11.30;90.20
23591;DHT22;11973;52.098;7.582;2023-04-15T11:48:35;11.10;90.20
23591;DHT22;11973;52.098;7.582;2023-04-15T11:51:03;11.00;90.00
23591;DHT22;11973;52.098;7.582;2023-04-15T11:53:55;10.90;90.30
23591;DHT22;11973;52.098;7.582;2023-04-15T11:56:24;10.80;90.40
23591;DHT22;11973;52.098;7.582;2023-04-15T11:58:57;10.80;90.50
23591;DHT22;11973;52.098;7.582;2023-04-15T12:01:37;10.70;90.50
23591;DHT22;11973;52.098;7.582;2023-04-15T12:04:12;10.60;90.50
23591;DHT22;11973;52.098;7.582;2023-04-15T12:06:39;10.60;90.60
23591;DHT22;11973;52.098;7.582;2023-04-15T12:11:35;10.70;90.80
23591;DHT22;11973;52.098;7.582;2023-04-15T12:14:39;10.70;90.90
23591;DHT22;11973;52.098;7.582;2023-04-15T12:17:06;10.70;90.90
23591;DHT22;11973;52.098;7.582;2023-04-15T12:22:04;10.80;91.20
23591;DHT22;11973;52.098;7.582;2023-04-15T12:24:35;10.90;91.30
23591;DHT22;11973;52.098;7.582;2023-04-15T12:27:06;10.90;91.30
23591;DHT22;11973;52.098;7.582;2023-04-15T12:29:33;10.90;91.40
23591;DHT22;11973;52.098;7.582;2023-04-15T12:32:08;10.90;91.40
23591;DHT22;11973;52.098;7.582;2023-04-15T12:34:48;10.90;91.50
23591;DHT22;11973;52.098;7.582;2023-04-15T12:37:15;10.90;91.60
23591;DHT22;11973;52.098;7.582;2023-04-15T12:39:42;10.90;91.60
23591;DHT22;11973;52.098;7.582;2023-04-15T12:42:09;11.00;91.70
23591;DHT22;11973;52.098;7.582;2023-04-15T12:44:36;11.00;91.80
23591;DHT22;11973;52.098;7.582;2023-04-15T12:47:02;11.00;91.80
23591;DHT22;11973;52.098;7.582;2023-04-15T12:49:28;11.20;91.90
23591;DHT22;11973;52.098;7.582;2023-04-15T12:51:58;11.10;92.00
23591;DHT22;11973;52.098;7.582;2023-04-15T12:54:28;11.10;92.00
23591;DHT22;11973;52.098;7.582;2023-04-15T12:56:54;11.10;92.00
23591;DHT22;11973;52.098;7.582;2023-04-15T12:59:20;11.10;92.00
23591;DHT22;11973;52.098;7.582;2023-04-15T13:01:47;11.00;92.00
23591;DHT22;11973;52.098;7.582;2023-04-15T13:04:13;11.00;92.00
23591;DHT22;11973;52.098;7.582;2023-04-15T13:06:40;11.00;92.00
23591;DHT22;11973;52.098;7.582;2023-04-15T13:09:06;10.90;92.00
23591;DHT22;11973;52.098;7.582;2023-04-15T13:11:32;10.90;92.10
23591;DHT22;11973;52.098;7.582;2023-04-15T13:14:03;10.80;92.20
23591;DHT22;11973;52.098;7.582;2023-04-15T13:16:29;10.70;92.20
23591;DHT22;11973;52.098;7.582;2023-04-15T13:18:57;10.60;92.30
23591;DHT22;11973;52.098;7.582;2023-04-15T13:21:23;10.60;92.40
23591;DHT22;11973;52.098;7.582;2023-04-15T13:23:49;10.60;92.50
23591;DHT22;11973;52.098;7.582;2023-04-15T13:26:16;10.50;92.60
23591;DHT22;11973;52.098;7.582;2023-04-15T13:28:42;10.50;92.60
23591;DHT22;11973;52.098;7.582;2023-04-15T13:31:08;10.40;92.70
23591;DHT22;11973;52.098;7.582;2023-04-15T13:33:33;10.40;92.80
23591;DHT22;11973;52.098;7.582;2023-04-15T13:35:59;10.40;92.90
23591;DHT22;11973;52.098;7.582;2023-04-15T13:38:25;10.50;93.10
23591;DHT22;11973;52.098;7.582;2023-04-15T13:40:51;10.30;93.00
23591;DHT22;11973;52.098;7.582;2023-04-15T13:43:17;10.30;93.10
23591;DHT22;11973;52.098;7.582;2023-04-15T13:45:45;10.30;93.30
23591;DHT22;11973;52.098;7.582;2023-04-15T13:48:11;10.20;93.30
23591;DHT22;11973;52.098;7.582;2023-04-15T13:50:36;10.20;93.40
23591;DHT22;11973;52.098;7.582;2023-04-15T13:53:02;10.30;93.50
23591;DHT22;11973;52.098;7.582;2023-04-15T13:55:28;10.20;93.60
23591;DHT22;11973;52.098;7.582;2023-04-15T13:57:53;10.10;93.60
23591;DHT22;11973;52.098;7.582;2023-04-15T14:00:19;10.10;93.80
23591;DHT22;11973;52.098;7.582;2023-04-15T14:02:45;10.20;93.90
23591;DHT22;11973;52.098;7.582;2023-04-15T14:05:11;10.10;93.90
23591;DHT22;11973;52.098;7.582;2023-04-15T14:07:37;10.30;94.10
23591;DHT22;11973;52.098;7.582;2023-04-15T14:10:03;10.10;94.20
23591;DHT22;11973;52.098;7.582;2023-04-15T14:12:29;10.10;94.30
23591;DHT22;11973;52.098;7.582;2023-04-15T14:14:54;10.20;94.40
23591;DHT22;11973;52.098;7.582;2023-04-15T14:17:20;10.00;94.40
23591;DHT22;11973;52.098;7.582;2023-04-15T14:19:46;10.00;94.60
23591;DHT22;11973;52.098;7.582;2023-04-15T14:22:12;10.00;94.70
23591;DHT22;11973;52.098;7.582;2023-04-15T14:24:37;9.90;95.70
23591;DHT22;11973;52.098;7.582;2023-04-15T14:27:03;9.90;95.40
23591;DHT22;11973;52.098;7.582;2023-04-15T14:29:29;9.90;95.50
23591;DHT22;11973;52.098;7.582;2023-04-15T14:31:55;9.80;95.60
23591;DHT22;11973;52.098;7.582;2023-04-15T14:34:23;9.80;95.70
23591;DHT22;11973;52.098;7.582;2023-04-15T14:36:50;9.80;95.90
23591;DHT22;11973;52.098;7.582;2023-04-15T14:39:18;9.80;96.00
23591;DHT22;11973;52.098;7.582;2023-04-15T14:41:44;9.80;96.10
23591;DHT22;11973;52.098;7.582;2023-04-15T14:44:10;9.70;96.10
23591;DHT22;11973;52.098;7.582;2023-04-15T14:46:37;9.70;96.30
23591;DHT22;11973;52.098;7.582;2023-04-15T14:49:03;9.70;96.40
23591;DHT22;11973;52.098;7.582;2023-04-15T14:51:28;9.70;96.50
23591;DHT22;11973;52.098;7.582;2023-04-15T14:53:58;9.70;96.60
23591;DHT22;11973;52.098;7.582;2023-04-15T14:56:25;9.60;96.60
23591;DHT22;11973;52.098;7.582;2023-04-15T14:58:51;9.60;96.70
23591;DHT22;11973;52.098;7.582;2023-04-15T15:01:19;9.60;96.80
23591;DHT22;11973;52.098;7.582;2023-04-15T15:03:45;9.60;97.20
23591;DHT22;11973;52.098;7.582;2023-04-15T15:06:11;9.60;96.90
23591;DHT22;11973;52.098;7.582;2023-04-15T15:08:37;9.60;97.10
23591;DHT22;11973;52.098;7.582;2023-04-15T15:11:02;9.60;97.50
23591;DHT22;11973;52.098;7.582;2023-04-15T15:13:28;9.60;97.20
23591;DHT22;11973;52.098;7.582;2023-04-15T15:15:54;9.60;97.30
23591;DHT22;11973;52.098;7.582;2023-04-15T15:18:20;9.50;97.30
23591;DHT22;11973;52.098;7.582;2023-04-15T15:20:47;9.50;97.40
23591;DHT22;11973;52.098;7.582;2023-04-15T15:23:13;9.50;97.40
23591;DHT22;11973;52.098;7.582;2023-04-15T15:25:39;9.50;97.50
23591;DHT22;11973;52.098;7.582;2023-04-15T15:28:05;9.60;97.60
23591;DHT22;11973;52.098;7.582;2023-04-15T15:30:31;9.50;97.60
23591;DHT22;11973;52.098;7.582;2023-04-15T15:32:57;9.50;97.70
23591;DHT22;11973;52.098;7.582;2023-04-15T15:35:24;9.50;97.80
23591;DHT22;11973;52.098;7.582;2023-04-15T15:37:50;9.50;97.80
23591;DHT22;11973;52.098;7.582;2023-04-15T15:40:16;9.50;97.90
23591;DHT22;11973;52.098;7.582;2023-04-15T15:42:44;9.50;97.90
23591;DHT22;11973;52.098;7.582;2023-04-15T15:45:11;9.40;97.90
23591;DHT22;11973;52.098;7.582;2023-04-15T15:47:37;9.40;98.00
23591;DHT22;11973;52.098;7.582;2023-04-15T15:50:03;9.60;98.20
23591;DHT22;11973;52.098;7.582;2023-04-15T15:52:29;9.40;98.10
23591;DHT22;11973;52.098;7.582;2023-04-15T15:54:54;9.40;98.10
23591;DHT22;11973;52.098;7.582;2023-04-15T15:57:20;9.40;98.20
23591;DHT22;11973;52.098;7.582;2023-04-15T15:59:46;9.60;98.30
23591;DHT22;11973;52.098;7.582;2023-04-15T16:02:15;9.40;98.30
23591;DHT22;11973;52.098;7.582;2023-04-15T16:04:40;9.40;98.30
23591;DHT22;11973;52.098;7.582;2023-04-15T16:07:09;9.30;98.40
23591;DHT22;11973;52.098;7.582;2023-04-15T16:09:36;9.50;98.50
23591;DHT22;11973;52.098;7.582;2023-04-15T16:12:02;9.40;98.60
23591;DHT22;11973;52.098;7.582;2023-04-15T16:14:28;9.30;98.60
23591;DHT22;11973;52.098;7.582;2023-04-15T16:16:54;9.30;98.60
23591;DHT22;11973;52.098;7.582;2023-04-15T16:19:20;9.30;98.70
23591;DHT22;11973;52.098;7.582;2023-04-15T16:21:46;9.30;98.70
23591;DHT22;11973;52.098;7.582;2023-04-15T16:24:12;9.30;98.80
23591;DHT22;11973;52.098;7.582;2023-04-15T16:26:39;9.30;98.80
23591;DHT22;11973;52.098;7.582;2023-04-15T16:29:05;9.50;99.00
23591;DHT22;11973;52.098;7.582;2023-04-15T16:31:31;9.30;99.00
23591;DHT22;11973;52.098;7.582;2023-04-15T16:33:57;9.30;99.00
23591;DHT22;11973;52.098;7.582;2023-04-15T16:36:23;9.30;99.00
23591;DHT22;11973;52.098;7.582;2023-04-15T16:38:48;9.30;99.10
23591;DHT22;11973;52.098;7.582;2023-04-15T16:41:17;9.30;99.10
23591;DHT22;11973;52.098;7.582;2023-04-15T16:43:43;9.30;99.20
23591;DHT22;11973;52.098;7.582;2023-04-15T16:46:09;9.30;99.20
23591;DHT22;11973;52.098;7.582;2023-04-15T16:48:37;9.30;99.30
23591;DHT22;11973;52.098;7.582;2023-04-15T16:51:03;9.30;99.30
23591;DHT22;11973;52.098;7.582;2023-04-15T16:53:29;9.30;99.30
23591;DHT22;11973;52.098;7.582;2023-04-15T16:55:54;9.20;99.30
23591;DHT22;11973;52.098;7.582;2023-04-15T16:58:20;9.20;99.70
23591;DHT22;11973;52.098;7.582;2023-04-15T17:00:46;9.20;99.40
23591;DHT22;11973;52.098;7.582;2023-04-15T17:03:12;9.20;99.50
23591;DHT22;11973;52.098;7.582;2023-04-15T17:05:37;9.20;99.60
23591;DHT22;11973;52.098;7.582;2023-04-15T17:08:04;9.20;99.60
23591;DHT22;11973;52.098;7.582;2023-04-15T17:10:30;9.20;99.60
23591;DHT22;11973;52.098;7.582;2023-04-15T17:12:56;9.20;99.60
23591;DHT22;11973;52.098;7.582;2023-04-15T17:15:23;9.20;99.70
23591;DHT22;11973;52.098;7.582;2023-04-15T17:17:48;9.20;99.80
23591;DHT22;11973;52.098;7.582;2023-04-15T17:20:14;9.10;99.80
23591;DHT22;11973;52.098;7.582;2023-04-15T17:22:42;9.10;99.80
23591;DHT22;11973;52.098;7.582;2023-04-15T17:25:08;9.10;99.90
23591;DHT22;11973;52.098;7.582;2023-04-15T17:27:34;9.10;99.90
23591;DHT22;11973;52.098;7.582;2023-04-15T17:30:00;9.10;99.90
23591;DHT22;11973;52.098;7.582;2023-04-15T17:32:26;9.10;99.90
23591;DHT22;11973;52.098;7.582;2023-04-15T17:34:56;9.10;99.90
23591;DHT22;11973;52.098;7.582;2023-04-15T17:37:23;9.30;99.90
23591;DHT22;11973;52.098;7.582;2023-04-15T17:39:49;9.10;99.90
23591;DHT22;11973;52.098;7.582;2023-04-15T17:42:14;9.10;99.90
23591;DHT22;11973;52.098;7.582;2023-04-15T17:44:41;9.10;99.90
23591;DHT22;11973;52.098;7.582;2023-04-15T17:47:07;9.10;99.90
23591;DHT22;11973;52.098;7.582;2023-04-15T17:49:32;9.10;99.90
23591;DHT22;11973;52.098;7.582;2023-04-15T17:51:59;9.10;99.90
23591;DHT22;11973;52.098;7.582;2023-04-15T17:54:25;9.10;99.90
23591;DHT22;11973;52.098;7.582;2023-04-15T17:56:51;9.10;99.90
23591;DHT22;11973;52.098;7.582;2023-04-15T17:59:17;9.10;99.90
23591;DHT22;11973;52.098;7.582;2023-04-15T18:01:43;9.10;99.90
23591;DHT22;11973;52.098;7.582;2023-04-15T18:04:10;9.10;99.90
23591;DHT22;11973;52.098;7.582;2023-04-15T18:06:36;9.10;99.90
23591;DHT22;11973;52.098;7.582;2023-04-15T18:09:02;9.10;99.90
23591;DHT22;11973;52.098;7.582;2023-04-15T18:11:30;9.10;99.90
23591;DHT22;11973;52.098;7.582;2023-04-15T18:13:58;9.10;99.90
23591;DHT22;11973;52.098;7.582;2023-04-15T18:16:24;9.10;99.90
23591;DHT22;11973;52.098;7.582;2023-04-15T18:18:51;9.10;99.90
23591;DHT22;11973;52.098;7.582;2023-04-15T18:21:17;9.00;99.90
23591;DHT22;11973;52.098;7.582;2023-04-15T18:23:43;9.00;99.90
23591;DHT22;11973;52.098;7.582;2023-04-15T18:26:09;9.10;99.90
23591;DHT22;11973;52.098;7.582;2023-04-15T18:28:35;9.20;99.90
23591;DHT22;11973;52.098;7.582;2023-04-15T18:31:03;9.00;99.90
23591;DHT22;11973;52.098;7.582;2023-04-15T18:33:29;9.00;99.90
23591;DHT22;11973;52.098;7.582;2023-04-15T18:35:55;9.00;99.90
23591;DHT22;11973;52.098;7.582;2023-04-15T18:38:22;9.20;99.90
23591;DHT22;11973;52.098;7.582;2023-04-15T18:40:48;9.00;99.90
23591;DHT22;11973;52.098;7.582;2023-04-15T18:43:14;9.00;99.90
23591;DHT22;11973;52.098;7.582;2023-04-15T18:45:40;9.00;99.90
23591;DHT22;11973;52.098;7.582;2023-04-15T18:48:06;9.00;99.90
23591;DHT22;11973;52.098;7.582;2023-04-15T18:50:32;9.00;99.90
23591;DHT22;11973;52.098;7.582;2023-04-15T18:52:58;9.00;99.90
23591;DHT22;11973;52.098;7.582;2023-04-15T18:55:23;9.10;99.90
23591;DHT22;11973;52.098;7.582;2023-04-15T18:57:50;9.00;99.90
23591;DHT22;11973;52.098;7.582;2023-04-15T19:00:16;9.10;99.90
23591;DHT22;11973;52.098;7.582;2023-04-15T19:02:42;9.00;99.90
23591;DHT22;11973;52.098;7.582;2023-04-15T19:05:09;9.00;99.90
23591;DHT22;11973;52.098;7.582;2023-04-15T19:07:35;9.00;99.90
23591;DHT22;11973;52.098;7.582;2023-04-15T19:10:04;9.00;99.90
23591;DHT22;11973;52.098;7.582;2023-04-15T19:12:30;9.00;99.90
23591;DHT22;11973;52.098;7.582;2023-04-15T19:14:56;9.00;99.90
23591;DHT22;11973;52.098;7.582;2023-04-15T19:17:22;9.00;99.90
23591;DHT22;11973;52.098;7.582;2023-04-15T19:19:48;9.00;99.90
23591;DHT22;11973;52.098;7.582;2023-04-15T19:22:14;9.00;99.90
23591;DHT22;11973;52.098;7.582;2023-04-15T19:24:41;9.00;99.90
23591;DHT22;11973;52.098;7.582;2023-04-15T19:27:07;9.00;99.90
23591;DHT22;11973;52.098;7.582;2023-04-15T19:29:33;9.00;99.90
23591;DHT22;11973;52.098;7.582;2023-04-15T19:31:59;9.00;99.90
23591;DHT22;11973;52.098;7.582;2023-04-15T19:34:25;9.20;99.90
23591;DHT22;11973;52.098;7.582;2023-04-15T19:36:51;9.00;99.90
23591;DHT22;11973;52.098;7.582;2023-04-15T19:39:17;9.00;99.90
23591;DHT22;11973;52.098;7.582;2023-04-15T19:41:44;9.00;99.90
23591;DHT22;11973;52.098;7.582;2023-04-15T19:44:10;9.00;99.90
23591;DHT22;11973;52.098;7.582;2023-04-15T19:46:39;9.00;99.90
23591;DHT22;11973;52.098;7.582;2023-04-15T19:49:05;9.00;99.90
23591;DHT22;11973;52.098;7.582;2023-04-15T19:51:31;9.00;99.90
23591;DHT22;11973;52.098;7.582;2023-04-15T19:53:57;9.00;99.90
23591;DHT22;11973;52.098;7.582;2023-04-15T19:56:24;9.10;99.90